sensor_id;sensor_type;location;lat;lon;timestamp;P1;durP1;ratioP1;P2;durP2;ratioP2
66886;SDS011;67239;51.680;5.976;2023-07-20T00:01:52;9.32;;;6.65;;
66886;SDS011;67239;51.680;5.976;2023-07-20T00:04:20;8.68;;;6.90;;
66886;SDS011;67239;51.680;5.976;2023-07-20T00:06:47;13.23;;;6.82;;
66886;SDS011;67239;51.680;5.976;2023-07-20T00:09:14;10.15;;;6.55;;
66886;SDS011;67239;51.680;5.976;2023-07-20T00:11:47;8.60;;;6.10;;
66886;SDS011;67239;51.680;5.976;2023-07-20T00:14:17;10.65;;;6.40;;
66886;SDS011;67239;51.680;5.976;2023-07-20T00:16:45;11.20;;;6.55;;
66886;SDS011;67239;51.680;5.976;2023-07-20T00:19:13;9.15;;;6.18;;
66886;SDS011;67239;51.680;5.976;2023-07-20T00:21:40;8.48;;;6.55;;
66886;SDS011;67239;51.680;5.976;2023-07-20T00:24:09;9.75;;;6.50;;
66886;SDS011;67239;51.680;5.976;2023-07-20T00:26:36;8.52;;;6.32;;
66886;SDS011;67239;51.680;5.976;2023-07-20T00:29:03;8.93;;;6.32;;
66886;SDS011;67239;51.680;5.976;2023-07-20T00:31:31;9.50;;;6.88;;
66886;SDS011;67239;51.680;5.976;2023-07-20T00:33:58;9.00;;;7.13;;
66886;SDS011;67239;51.680;5.976;2023-07-20T00:36:25;9.65;;;6.70;;
66886;SDS011;67239;51.680;5.976;2023-07-20T00:38:52;9.63;;;7.00;;
66886;SDS011;67239;51.680;5.976;2023-07-20T00:41:19;9.88;;;7.05;;
66886;SDS011;67239;51.680;5.976;2023-07-20T00:43:46;15.57;;;7.90;;
66886;SDS011;67239;51.680;5.976;2023-07-20T00:46:13;15.82;;;8.68;;
66886;SDS011;67239;51.680;5.976;2023-07-20T00:48:41;14.50;;;9.35;;
66886;SDS011;67239;51.680;5.976;2023-07-20T00:51:09;13.02;;;8.65;;
66886;SDS011;67239;51.680;5.976;2023-07-20T00:53:38;15.05;;;10.10;;
66886;SDS011;67239;51.680;5.976;2023-07-20T00:56:05;15.52;;;10.48;;
66886;SDS011;67239;51.680;5.976;2023-07-20T00:58:35;13.65;;;10.43;;
66886;SDS011;67239;51.680;5.976;2023-07-20T01:01:02;16.20;;;10.98;;
66886;SDS011;67239;51.680;5.976;2023-07-20T01:03:30;16.08;;;12.00;;
66886;SDS011;67239;51.680;5.976;2023-07-20T01:12:18;14.63;;;10.57;;
66886;SDS011;67239;51.680;5.976;2023-07-20T01:14:51;18.08;;;11.07;;
66886;SDS011;67239;51.680;5.976;2023-07-20T01:17:18;16.77;;;11.65;;
66886;SDS011;67239;51.680;5.976;2023-07-20T01:19:45;17.85;;;12.02;;
66886;SDS011;67239;51.680;5.976;2023-07-20T01:22:35;19.52;;;12.95;;
66886;SDS011;67239;51.680;5.976;2023-07-20T01:31:40;21.67;;;14.77;;
66886;SDS011;67239;51.680;5.976;2023-07-20T01:34:11;19.20;;;13.55;;
66886;SDS011;67239;51.680;5.976;2023-07-20T01:36:44;19.17;;;14.20;;
66886;SDS011;67239;51.680;5.976;2023-07-20T01:39:14;21.15;;;15.32;;
66886;SDS011;67239;51.680;5.976;2023-07-20T01:41:43;22.13;;;15.68;;
66886;SDS011;67239;51.680;5.976;2023-07-20T01:44:12;28.08;;;17.63;;
66886;SDS011;67239;51.680;5.976;2023-07-20T01:46:40;25.02;;;17.25;;
66886;SDS011;67239;51.680;5.976;2023-07-20T01:49:07;25.65;;;17.13;;
66886;SDS011;67239;51.680;5.976;2023-07-20T01:51:34;25.75;;;16.85;;
66886;SDS011;67239;51.680;5.976;2023-07-20T01:54:01;31.00;;;18.20;;
66886;SDS011;67239;51.680;5.976;2023-07-20T01:56:28;28.58;;;16.95;;
66886;SDS011;67239;51.680;5.976;2023-07-20T01:58:55;27.52;;;17.67;;
66886;SDS011;67239;51.680;5.976;2023-07-20T02:01:22;26.88;;;18.40;;
66886;SDS011;67239;51.680;5.976;2023-07-20T02:03:50;26.90;;;17.88;;
66886;SDS011;67239;51.680;5.976;2023-07-20T02:06:17;33.25;;;18.63;;
66886;SDS011;67239;51.680;5.976;2023-07-20T02:08:44;30.08;;;18.80;;
66886;SDS011;67239;51.680;5.976;2023-07-20T02:11:11;27.02;;;18.25;;
66886;SDS011;67239;51.680;5.976;2023-07-20T02:13:38;24.00;;;15.73;;
66886;SDS011;67239;51.680;5.976;2023-07-20T02:16:05;24.45;;;16.05;;
66886;SDS011;67239;51.680;5.976;2023-07-20T02:18:33;25.67;;;15.30;;
66886;SDS011;67239;51.680;5.976;2023-07-20T02:21:00;24.00;;;15.43;;
66886;SDS011;67239;51.680;5.976;2023-07-20T02:23:27;26.42;;;16.85;;
66886;SDS011;67239;51.680;5.976;2023-07-20T02:25:54;25.23;;;15.60;;
66886;SDS011;67239;51.680;5.976;2023-07-20T02:28:21;21.42;;;13.48;;
66886;SDS011;67239;51.680;5.976;2023-07-20T02:30:50;21.55;;;14.43;;
66886;SDS011;67239;51.680;5.976;2023-07-20T02:33:17;24.02;;;14.35;;
66886;SDS011;67239;51.680;5.976;2023-07-20T02:35:44;18.27;;;13.18;;
66886;SDS011;67239;51.680;5.976;2023-07-20T02:38:11;17.75;;;11.55;;
66886;SDS011;67239;51.680;5.976;2023-07-20T02:40:38;18.33;;;12.40;;
66886;SDS011;67239;51.680;5.976;2023-07-20T02:43:05;18.45;;;12.38;;
66886;SDS011;67239;51.680;5.976;2023-07-20T02:45:33;17.65;;;12.75;;
66886;SDS011;67239;51.680;5.976;2023-07-20T02:48:00;17.92;;;12.68;;
66886;SDS011;67239;51.680;5.976;2023-07-20T02:50:27;19.15;;;12.05;;
66886;SDS011;67239;51.680;5.976;2023-07-20T02:52:55;19.05;;;12.50;;
66886;SDS011;67239;51.680;5.976;2023-07-20T02:55:22;20.48;;;12.70;;
66886;SDS011;67239;51.680;5.976;2023-07-20T02:57:49;14.70;;;11.18;;
66886;SDS011;67239;51.680;5.976;2023-07-20T03:00:17;14.55;;;10.57;;
66886;SDS011;67239;51.680;5.976;2023-07-20T03:02:46;18.48;;;11.80;;
66886;SDS011;67239;51.680;5.976;2023-07-20T03:05:19;15.35;;;11.95;;
66886;SDS011;67239;51.680;5.976;2023-07-20T03:07:47;16.30;;;11.95;;
66886;SDS011;67239;51.680;5.976;2023-07-20T03:10:14;19.48;;;12.35;;
66886;SDS011;67239;51.680;5.976;2023-07-20T03:12:41;16.73;;;11.02;;
66886;SDS011;67239;51.680;5.976;2023-07-20T03:15:09;16.45;;;11.35;;
66886;SDS011;67239;51.680;5.976;2023-07-20T03:17:37;14.13;;;10.70;;
66886;SDS011;67239;51.680;5.976;2023-07-20T03:20:04;16.98;;;11.50;;
66886;SDS011;67239;51.680;5.976;2023-07-20T03:22:35;17.70;;;11.68;;
66886;SDS011;67239;51.680;5.976;2023-07-20T03:25:03;19.20;;;11.73;;
66886;SDS011;67239;51.680;5.976;2023-07-20T03:27:31;14.13;;;10.35;;
66886;SDS011;67239;51.680;5.976;2023-07-20T03:30:00;15.60;;;10.60;;
66886;SDS011;67239;51.680;5.976;2023-07-20T03:32:28;13.13;;;10.13;;
66886;SDS011;67239;51.680;5.976;2023-07-20T03:34:55;13.40;;;9.75;;
66886;SDS011;67239;51.680;5.976;2023-07-20T03:37:22;13.70;;;9.40;;
66886;SDS011;67239;51.680;5.976;2023-07-20T03:39:49;11.75;;;8.65;;
66886;SDS011;67239;51.680;5.976;2023-07-20T03:42:16;12.35;;;9.50;;
66886;SDS011;67239;51.680;5.976;2023-07-20T03:44:43;12.32;;;8.60;;
66886;SDS011;67239;51.680;5.976;2023-07-20T03:47:10;10.10;;;8.43;;
66886;SDS011;67239;51.680;5.976;2023-07-20T03:49:38;10.95;;;8.35;;
66886;SDS011;67239;51.680;5.976;2023-07-20T03:52:05;11.48;;;8.98;;
66886;SDS011;67239;51.680;5.976;2023-07-20T03:54:33;13.93;;;9.43;;
66886;SDS011;67239;51.680;5.976;2023-07-20T03:57:00;15.77;;;10.82;;
66886;SDS011;67239;51.680;5.976;2023-07-20T03:59:27;14.70;;;10.45;;
66886;SDS011;67239;51.680;5.976;2023-07-20T04:01:54;13.82;;;10.15;;
66886;SDS011;67239;51.680;5.976;2023-07-20T04:04:22;13.43;;;9.63;;
66886;SDS011;67239;51.680;5.976;2023-07-20T04:06:49;12.02;;;9.75;;
66886;SDS011;67239;51.680;5.976;2023-07-20T04:09:16;11.93;;;9.77;;
66886;SDS011;67239;51.680;5.976;2023-07-20T04:11:43;14.15;;;9.68;;
66886;SDS011;67239;51.680;5.976;2023-07-20T04:14:10;13.85;;;9.57;;
66886;SDS011;67239;51.680;5.976;2023-07-20T04:16:37;13.60;;;10.57;;
66886;SDS011;67239;51.680;5.976;2023-07-20T04:19:04;14.07;;;10.10;;
66886;SDS011;67239;51.680;5.976;2023-07-20T04:21:31;14.88;;;10.77;;
66886;SDS011;67239;51.680;5.976;2023-07-20T04:23:59;14.07;;;10.50;;
66886;SDS011;67239;51.680;5.976;2023-07-20T04:26:26;13.38;;;9.38;;
66886;SDS011;67239;51.680;5.976;2023-07-20T04:28:53;13.18;;;9.52;;
66886;SDS011;67239;51.680;5.976;2023-07-20T04:31:31;12.82;;;9.93;;
66886;SDS011;67239;51.680;5.976;2023-07-20T04:34:00;14.85;;;9.60;;
66886;SDS011;67239;51.680;5.976;2023-07-20T04:36:28;13.75;;;9.25;;
66886;SDS011;67239;51.680;5.976;2023-07-20T04:38:56;14.55;;;9.63;;
66886;SDS011;67239;51.680;5.976;2023-07-20T04:41:23;11.13;;;9.52;;
66886;SDS011;67239;51.680;5.976;2023-07-20T04:43:54;10.50;;;8.98;;
66886;SDS011;67239;51.680;5.976;2023-07-20T04:46:27;10.43;;;8.15;;
66886;SDS011;67239;51.680;5.976;2023-07-20T04:48:55;13.02;;;8.43;;
66886;SDS011;67239;51.680;5.976;2023-07-20T04:51:23;10.15;;;8.45;;
66886;SDS011;67239;51.680;5.976;2023-07-20T04:53:53;12.07;;;7.55;;
66886;SDS011;67239;51.680;5.976;2023-07-20T04:56:21;10.60;;;8.13;;
66886;SDS011;67239;51.680;5.976;2023-07-20T04:58:51;10.30;;;7.40;;
66886;SDS011;67239;51.680;5.976;2023-07-20T05:01:18;10.50;;;7.20;;
66886;SDS011;67239;51.680;5.976;2023-07-20T05:03:45;8.23;;;6.38;;
66886;SDS011;67239;51.680;5.976;2023-07-20T05:06:13;9.77;;;6.88;;
66886;SDS011;67239;51.680;5.976;2023-07-20T05:08:41;7.30;;;6.50;;
66886;SDS011;67239;51.680;5.976;2023-07-20T05:11:08;8.30;;;6.43;;
66886;SDS011;67239;51.680;5.976;2023-07-20T05:13:35;8.30;;;6.47;;
66886;SDS011;67239;51.680;5.976;2023-07-20T05:16:03;8.18;;;6.43;;
66886;SDS011;67239;51.680;5.976;2023-07-20T05:18:32;10.25;;;6.35;;
66886;SDS011;67239;51.680;5.976;2023-07-20T05:20:59;7.18;;;5.97;;
66886;SDS011;67239;51.680;5.976;2023-07-20T05:23:26;7.65;;;6.15;;
66886;SDS011;67239;51.680;5.976;2023-07-20T05:25:57;6.18;;;5.38;;
66886;SDS011;67239;51.680;5.976;2023-07-20T05:28:26;5.85;;;5.25;;
66886;SDS011;67239;51.680;5.976;2023-07-20T05:30:54;7.72;;;5.03;;
66886;SDS011;67239;51.680;5.976;2023-07-20T05:33:22;5.65;;;5.05;;
66886;SDS011;67239;51.680;5.976;2023-07-20T05:35:49;6.22;;;5.40;;
66886;SDS011;67239;51.680;5.976;2023-07-20T05:38:17;6.28;;;4.72;;
66886;SDS011;67239;51.680;5.976;2023-07-20T05:40:44;5.50;;;4.10;;
66886;SDS011;67239;51.680;5.976;2023-07-20T05:43:12;4.68;;;4.28;;
66886;SDS011;67239;51.680;5.976;2023-07-20T05:45:43;4.75;;;3.95;;
66886;SDS011;67239;51.680;5.976;2023-07-20T05:48:12;4.72;;;3.97;;
66886;SDS011;67239;51.680;5.976;2023-07-20T05:50:43;4.90;;;3.42;;
66886;SDS011;67239;51.680;5.976;2023-07-20T05:53:11;4.28;;;3.88;;
66886;SDS011;67239;51.680;5.976;2023-07-20T05:55:38;6.72;;;3.80;;
66886;SDS011;67239;51.680;5.976;2023-07-20T05:58:06;8.85;;;4.47;;
66886;SDS011;67239;51.680;5.976;2023-07-20T06:00:34;5.75;;;4.30;;
66886;SDS011;67239;51.680;5.976;2023-07-20T06:03:01;5.22;;;4.18;;
66886;SDS011;67239;51.680;5.976;2023-07-20T06:05:29;5.20;;;4.35;;
66886;SDS011;67239;51.680;5.976;2023-07-20T06:07:57;4.30;;;3.83;;
66886;SDS011;67239;51.680;5.976;2023-07-20T06:10:25;4.50;;;3.10;;
66886;SDS011;67239;51.680;5.976;2023-07-20T06:12:53;5.32;;;3.22;;
66886;SDS011;67239;51.680;5.976;2023-07-20T06:15:28;4.45;;;3.00;;
66886;SDS011;67239;51.680;5.976;2023-07-20T06:17:59;6.45;;;2.78;;
66886;SDS011;67239;51.680;5.976;2023-07-20T06:20:27;4.85;;;2.78;;
66886;SDS011;67239;51.680;5.976;2023-07-20T06:22:54;3.15;;;2.50;;
66886;SDS011;67239;51.680;5.976;2023-07-20T06:25:22;4.43;;;2.67;;
66886;SDS011;67239;51.680;5.976;2023-07-20T06:27:49;5.10;;;2.90;;
66886;SDS011;67239;51.680;5.976;2023-07-20T06:30:18;4.53;;;2.70;;
66886;SDS011;67239;51.680;5.976;2023-07-20T06:32:46;3.95;;;3.28;;
66886;SDS011;67239;51.680;5.976;2023-07-20T06:35:13;3.55;;;2.67;;
66886;SDS011;67239;51.680;5.976;2023-07-20T06:37:42;5.15;;;3.42;;
66886;SDS011;67239;51.680;5.976;2023-07-20T06:40:09;4.50;;;3.08;;
66886;SDS011;67239;51.680;5.976;2023-07-20T06:42:39;3.10;;;2.80;;
66886;SDS011;67239;51.680;5.976;2023-07-20T06:45:09;5.57;;;2.80;;
66886;SDS011;67239;51.680;5.976;2023-07-20T06:47:38;3.75;;;3.03;;
66886;SDS011;67239;51.680;5.976;2023-07-20T06:50:09;2.78;;;2.42;;
66886;SDS011;67239;51.680;5.976;2023-07-20T06:52:43;3.22;;;2.75;;
66886;SDS011;67239;51.680;5.976;2023-07-20T06:57:47;3.65;;;3.05;;
66886;SDS011;67239;51.680;5.976;2023-07-20T07:00:18;3.67;;;3.17;;
66886;SDS011;67239;51.680;5.976;2023-07-20T07:02:46;5.97;;;2.58;;
66886;SDS011;67239;51.680;5.976;2023-07-20T07:05:16;3.22;;;2.50;;
66886;SDS011;67239;51.680;5.976;2023-07-20T07:07:47;4.47;;;2.80;;
66886;SDS011;67239;51.680;5.976;2023-07-20T07:10:15;5.93;;;3.00;;
66886;SDS011;67239;51.680;5.976;2023-07-20T07:12:42;4.82;;;2.97;;
66886;SDS011;67239;51.680;5.976;2023-07-20T07:15:12;3.55;;;3.10;;
66886;SDS011;67239;51.680;5.976;2023-07-20T07:17:40;7.15;;;3.10;;
66886;SDS011;67239;51.680;5.976;2023-07-20T07:20:07;4.47;;;3.05;;
66886;SDS011;67239;51.680;5.976;2023-07-20T07:22:46;2.95;;;2.28;;
66886;SDS011;67239;51.680;5.976;2023-07-20T07:25:14;8.25;;;2.50;;
66886;SDS011;67239;51.680;5.976;2023-07-20T07:27:49;5.85;;;2.17;;
66886;SDS011;67239;51.680;5.976;2023-07-20T07:30:16;2.90;;;2.00;;
66886;SDS011;67239;51.680;5.976;2023-07-20T07:32:43;3.30;;;1.95;;
66886;SDS011;67239;51.680;5.976;2023-07-20T07:35:10;7.05;;;1.85;;
66886;SDS011;67239;51.680;5.976;2023-07-20T07:37:38;5.05;;;1.75;;
66886;SDS011;67239;51.680;5.976;2023-07-20T07:40:18;3.45;;;1.45;;
66886;SDS011;67239;51.680;5.976;2023-07-20T07:42:45;2.33;;;1.33;;
66886;SDS011;67239;51.680;5.976;2023-07-20T07:45:12;2.28;;;1.10;;
66886;SDS011;67239;51.680;5.976;2023-07-20T07:47:40;1.98;;;1.10;;
66886;SDS011;67239;51.680;5.976;2023-07-20T07:50:07;2.45;;;1.50;;
66886;SDS011;67239;51.680;5.976;2023-07-20T07:52:36;3.55;;;1.23;;
66886;SDS011;67239;51.680;5.976;2023-07-20T07:55:04;6.68;;;1.25;;
66886;SDS011;67239;51.680;5.976;2023-07-20T07:57:32;2.63;;;1.00;;
66886;SDS011;67239;51.680;5.976;2023-07-20T08:00:00;2.15;;;1.17;;
66886;SDS011;67239;51.680;5.976;2023-07-20T08:02:30;4.13;;;0.90;;
66886;SDS011;67239;51.680;5.976;2023-07-20T08:04:57;4.38;;;1.30;;
66886;SDS011;67239;51.680;5.976;2023-07-20T08:07:24;2.45;;;0.90;;
66886;SDS011;67239;51.680;5.976;2023-07-20T08:09:52;3.72;;;0.85;;
66886;SDS011;67239;51.680;5.976;2023-07-20T08:12:19;3.03;;;1.00;;
66886;SDS011;67239;51.680;5.976;2023-07-20T08:14:46;2.33;;;1.00;;
66886;SDS011;67239;51.680;5.976;2023-07-20T08:17:14;3.55;;;1.00;;
66886;SDS011;67239;51.680;5.976;2023-07-20T08:19:42;11.63;;;1.42;;
66886;SDS011;67239;51.680;5.976;2023-07-20T08:22:10;6.03;;;1.30;;
66886;SDS011;67239;51.680;5.976;2023-07-20T08:24:39;4.03;;;0.88;;
66886;SDS011;67239;51.680;5.976;2023-07-20T08:27:07;2.25;;;1.00;;
66886;SDS011;67239;51.680;5.976;2023-07-20T08:29:35;2.05;;;0.98;;
66886;SDS011;67239;51.680;5.976;2023-07-20T08:32:04;2.58;;;0.90;;
66886;SDS011;67239;51.680;5.976;2023-07-20T08:34:32;2.63;;;0.80;;
66886;SDS011;67239;51.680;5.976;2023-07-20T08:37:00;1.52;;;0.50;;
66886;SDS011;67239;51.680;5.976;2023-07-20T08:39:27;2.30;;;0.60;;
66886;SDS011;67239;51.680;5.976;2023-07-20T08:41:54;1.67;;;0.50;;
66886;SDS011;67239;51.680;5.976;2023-07-20T08:44:24;1.23;;;0.60;;
66886;SDS011;67239;51.680;5.976;2023-07-20T08:46:52;2.55;;;0.60;;
66886;SDS011;67239;51.680;5.976;2023-07-20T08:49:20;3.78;;;1.17;;
66886;SDS011;67239;51.680;5.976;2023-07-20T08:51:48;4.70;;;1.08;;
66886;SDS011;67239;51.680;5.976;2023-07-20T08:54:15;3.80;;;0.80;;
66886;SDS011;67239;51.680;5.976;2023-07-20T08:56:43;2.50;;;0.82;;
66886;SDS011;67239;51.680;5.976;2023-07-20T08:59:14;2.05;;;0.70;;
66886;SDS011;67239;51.680;5.976;2023-07-20T09:01:44;3.53;;;0.75;;
66886;SDS011;67239;51.680;5.976;2023-07-20T09:04:13;1.67;;;0.60;;
66886;SDS011;67239;51.680;5.976;2023-07-20T09:06:40;1.02;;;0.57;;
66886;SDS011;67239;51.680;5.976;2023-07-20T09:09:11;1.48;;;0.80;;
66886;SDS011;67239;51.680;5.976;2023-07-20T09:11:40;3.33;;;0.70;;
66886;SDS011;67239;51.680;5.976;2023-07-20T09:14:08;1.83;;;0.60;;
66886;SDS011;67239;51.680;5.976;2023-07-20T09:16:50;1.90;;;0.70;;
66886;SDS011;67239;51.680;5.976;2023-07-20T09:19:22;1.30;;;0.73;;
66886;SDS011;67239;51.680;5.976;2023-07-20T09:21:50;2.53;;;1.00;;
66886;SDS011;67239;51.680;5.976;2023-07-20T09:24:19;1.50;;;0.90;;
66886;SDS011;67239;51.680;5.976;2023-07-20T09:26:47;2.60;;;0.90;;
66886;SDS011;67239;51.680;5.976;2023-07-20T09:29:18;3.95;;;1.10;;
66886;SDS011;67239;51.680;5.976;2023-07-20T09:31:59;2.20;;;0.73;;
66886;SDS011;67239;51.680;5.976;2023-07-20T09:34:31;2.30;;;0.60;;
66886;SDS011;67239;51.680;5.976;2023-07-20T09:37:02;2.38;;;0.55;;
66886;SDS011;67239;51.680;5.976;2023-07-20T09:39:30;1.83;;;0.80;;
66886;SDS011;67239;51.680;5.976;2023-07-20T09:42:00;0.63;;;0.50;;
66886;SDS011;67239;51.680;5.976;2023-07-20T09:44:31;2.33;;;0.80;;
66886;SDS011;67239;51.680;5.976;2023-07-20T09:47:03;1.52;;;0.70;;
66886;SDS011;67239;51.680;5.976;2023-07-20T09:49:31;2.45;;;0.80;;
66886;SDS011;67239;51.680;5.976;2023-07-20T09:52:19;3.03;;;0.52;;
66886;SDS011;67239;51.680;5.976;2023-07-20T09:54:50;2.30;;;0.52;;
66886;SDS011;67239;51.680;5.976;2023-07-20T09:57:18;4.20;;;0.80;;
66886;SDS011;67239;51.680;5.976;2023-07-20T09:59:48;0.70;;;0.40;;
66886;SDS011;67239;51.680;5.976;2023-07-20T10:02:20;0.68;;;0.50;;
66886;SDS011;67239;51.680;5.976;2023-07-20T10:04:52;1.67;;;0.55;;
66886;SDS011;67239;51.680;5.976;2023-07-20T10:07:22;0.50;;;0.40;;
66886;SDS011;67239;51.680;5.976;2023-07-20T10:09:54;1.40;;;0.50;;
66886;SDS011;67239;51.680;5.976;2023-07-20T10:12:26;0.95;;;0.50;;
66886;SDS011;67239;51.680;5.976;2023-07-20T10:15:05;1.17;;;0.43;;
66886;SDS011;67239;51.680;5.976;2023-07-20T10:17:49;2.00;;;0.40;;
66886;SDS011;67239;51.680;5.976;2023-07-20T10:20:32;1.98;;;0.57;;
66886;SDS011;67239;51.680;5.976;2023-07-20T10:23:03;1.00;;;0.30;;
66886;SDS011;67239;51.680;5.976;2023-07-20T10:25:31;0.85;;;0.38;;
66886;SDS011;67239;51.680;5.976;2023-07-20T10:28:04;0.52;;;0.30;;
66886;SDS011;67239;51.680;5.976;2023-07-20T10:30:35;7.30;;;1.00;;
66886;SDS011;67239;51.680;5.976;2023-07-20T10:33:03;1.30;;;0.70;;
66886;SDS011;67239;51.680;5.976;2023-07-20T10:35:50;1.90;;;0.88;;
66886;SDS011;67239;51.680;5.976;2023-07-20T10:38:19;3.60;;;0.80;;
66886;SDS011;67239;51.680;5.976;2023-07-20T10:40:56;7.68;;;1.17;;
66886;SDS011;67239;51.680;5.976;2023-07-20T10:43:24;2.60;;;0.80;;
66886;SDS011;67239;51.680;5.976;2023-07-20T10:45:52;2.92;;;0.70;;
66886;SDS011;67239;51.680;5.976;2023-07-20T10:48:20;5.22;;;0.70;;
66886;SDS011;67239;51.680;5.976;2023-07-20T10:53:49;1.77;;;0.80;;
66886;SDS011;67239;51.680;5.976;2023-07-20T10:56:20;2.50;;;0.82;;
66886;SDS011;67239;51.680;5.976;2023-07-20T10:58:54;3.60;;;0.90;;
66886;SDS011;67239;51.680;5.976;2023-07-20T11:01:28;4.40;;;1.10;;
66886;SDS011;67239;51.680;5.976;2023-07-20T11:03:59;2.45;;;0.90;;
66886;SDS011;67239;51.680;5.976;2023-07-20T11:11:42;4.57;;;1.00;;
66886;SDS011;67239;51.680;5.976;2023-07-20T11:14:20;1.95;;;0.85;;
66886;SDS011;67239;51.680;5.976;2023-07-20T11:16:49;2.92;;;0.80;;
66886;SDS011;67239;51.680;5.976;2023-07-20T11:21:54;1.63;;;0.70;;
66886;SDS011;67239;51.680;5.976;2023-07-20T11:24:30;1.02;;;0.70;;
66886;SDS011;67239;51.680;5.976;2023-07-20T11:26:59;0.93;;;0.68;;
66886;SDS011;67239;51.680;5.976;2023-07-20T11:29:28;2.33;;;0.80;;
66886;SDS011;67239;51.680;5.976;2023-07-20T11:31:59;3.47;;;0.85;;
66886;SDS011;67239;51.680;5.976;2023-07-20T11:34:31;1.00;;;0.70;;
66886;SDS011;67239;51.680;5.976;2023-07-20T11:37:01;1.23;;;0.70;;
66886;SDS011;67239;51.680;5.976;2023-07-20T11:39:32;4.90;;;0.70;;
66886;SDS011;67239;51.680;5.976;2023-07-20T11:41:59;0.82;;;0.55;;
66886;SDS011;67239;51.680;5.976;2023-07-20T11:44:27;0.85;;;0.68;;
66886;SDS011;67239;51.680;5.976;2023-07-20T11:47:03;2.70;;;0.65;;
66886;SDS011;67239;51.680;5.976;2023-07-20T11:49:36;2.15;;;0.70;;
66886;SDS011;67239;51.680;5.976;2023-07-20T11:52:13;1.38;;;0.70;;
66886;SDS011;67239;51.680;5.976;2023-07-20T11:54:44;2.97;;;0.90;;
66886;SDS011;67239;51.680;5.976;2023-07-20T11:57:21;2.90;;;0.80;;
66886;SDS011;67239;51.680;5.976;2023-07-20T11:59:56;1.83;;;0.70;;
66886;SDS011;67239;51.680;5.976;2023-07-20T12:02:28;9.63;;;1.30;;
66886;SDS011;67239;51.680;5.976;2023-07-20T12:04:58;1.90;;;0.90;;
66886;SDS011;67239;51.680;5.976;2023-07-20T12:07:26;1.50;;;1.00;;
66886;SDS011;67239;51.680;5.976;2023-07-20T12:12:42;2.17;;;1.00;;
66886;SDS011;67239;51.680;5.976;2023-07-20T12:15:19;1.88;;;0.80;;
66886;SDS011;67239;51.680;5.976;2023-07-20T12:17:50;3.22;;;1.00;;
66886;SDS011;67239;51.680;5.976;2023-07-20T12:20:41;3.63;;;1.20;;
66886;SDS011;67239;51.680;5.976;2023-07-20T12:23:10;1.27;;;0.80;;
66886;SDS011;67239;51.680;5.976;2023-07-20T12:28:15;22.15;;;2.38;;
66886;SDS011;67239;51.680;5.976;2023-07-20T12:30:46;6.03;;;1.52;;
66886;SDS011;67239;51.680;5.976;2023-07-20T12:33:18;3.33;;;1.55;;
66886;SDS011;67239;51.680;5.976;2023-07-20T12:35:45;3.00;;;1.48;;
66886;SDS011;67239;51.680;5.976;2023-07-20T12:38:13;2.03;;;0.90;;
66886;SDS011;67239;51.680;5.976;2023-07-20T12:40:40;8.52;;;1.40;;
66886;SDS011;67239;51.680;5.976;2023-07-20T12:43:07;3.30;;;1.30;;
66886;SDS011;67239;51.680;5.976;2023-07-20T12:45:35;1.40;;;1.20;;
66886;SDS011;67239;51.680;5.976;2023-07-20T12:48:02;3.08;;;1.40;;
66886;SDS011;67239;51.680;5.976;2023-07-20T12:50:30;3.20;;;1.30;;
66886;SDS011;67239;51.680;5.976;2023-07-20T12:52:57;2.30;;;1.13;;
66886;SDS011;67239;51.680;5.976;2023-07-20T12:55:24;1.92;;;1.00;;
66886;SDS011;67239;51.680;5.976;2023-07-20T12:57:51;1.88;;;1.00;;
66886;SDS011;67239;51.680;5.976;2023-07-20T13:00:19;1.42;;;1.00;;
66886;SDS011;67239;51.680;5.976;2023-07-20T13:02:47;2.83;;;0.85;;
66886;SDS011;67239;51.680;5.976;2023-07-20T13:05:15;2.35;;;0.93;;
66886;SDS011;67239;51.680;5.976;2023-07-20T13:07:43;2.10;;;1.08;;
66886;SDS011;67239;51.680;5.976;2023-07-20T13:10:13;2.75;;;1.30;;
66886;SDS011;67239;51.680;5.976;2023-07-20T13:12:40;2.88;;;1.10;;
66886;SDS011;67239;51.680;5.976;2023-07-20T13:15:08;1.30;;;1.17;;
66886;SDS011;67239;51.680;5.976;2023-07-20T13:17:38;2.63;;;1.15;;
66886;SDS011;67239;51.680;5.976;2023-07-20T13:20:07;1.92;;;1.20;;
66886;SDS011;67239;51.680;5.976;2023-07-20T13:22:37;4.78;;;1.10;;
66886;SDS011;67239;51.680;5.976;2023-07-20T13:25:05;2.85;;;1.10;;
66886;SDS011;67239;51.680;5.976;2023-07-20T13:27:34;3.22;;;1.35;;
66886;SDS011;67239;51.680;5.976;2023-07-20T13:30:05;2.05;;;1.05;;
66886;SDS011;67239;51.680;5.976;2023-07-20T13:32:39;4.25;;;1.15;;
66886;SDS011;67239;51.680;5.976;2023-07-20T13:35:11;4.22;;;1.20;;
66886;SDS011;67239;51.680;5.976;2023-07-20T13:37:39;13.43;;;1.98;;
66886;SDS011;67239;51.680;5.976;2023-07-20T13:40:08;11.73;;;1.45;;
66886;SDS011;67239;51.680;5.976;2023-07-20T13:42:41;1.52;;;1.00;;
66886;SDS011;67239;51.680;5.976;2023-07-20T13:45:08;1.73;;;1.20;;
66886;SDS011;67239;51.680;5.976;2023-07-20T13:47:35;2.90;;;1.30;;
66886;SDS011;67239;51.680;5.976;2023-07-20T13:50:03;5.20;;;1.50;;
66886;SDS011;67239;51.680;5.976;2023-07-20T13:52:31;2.38;;;1.15;;
66886;SDS011;67239;51.680;5.976;2023-07-20T13:55:03;1.65;;;1.05;;
66886;SDS011;67239;51.680;5.976;2023-07-20T13:57:32;5.28;;;1.30;;
66886;SDS011;67239;51.680;5.976;2023-07-20T14:00:02;2.28;;;1.00;;
66886;SDS011;67239;51.680;5.976;2023-07-20T14:02:37;3.28;;;1.20;;
66886;SDS011;67239;51.680;5.976;2023-07-20T14:05:07;5.45;;;1.13;;
66886;SDS011;67239;51.680;5.976;2023-07-20T14:07:39;4.97;;;1.10;;
66886;SDS011;67239;51.680;5.976;2023-07-20T14:10:07;1.55;;;0.98;;
66886;SDS011;67239;51.680;5.976;2023-07-20T14:12:38;2.58;;;1.00;;
66886;SDS011;67239;51.680;5.976;2023-07-20T14:15:05;7.85;;;1.17;;
66886;SDS011;67239;51.680;5.976;2023-07-20T14:17:33;3.67;;;1.27;;
66886;SDS011;67239;51.680;5.976;2023-07-20T14:20:00;2.63;;;1.00;;
66886;SDS011;67239;51.680;5.976;2023-07-20T14:22:28;3.53;;;1.00;;
66886;SDS011;67239;51.680;5.976;2023-07-20T14:24:58;4.07;;;1.40;;
66886;SDS011;67239;51.680;5.976;2023-07-20T14:27:25;4.95;;;1.63;;
66886;SDS011;67239;51.680;5.976;2023-07-20T14:29:53;1.92;;;1.23;;
66886;SDS011;67239;51.680;5.976;2023-07-20T14:32:20;8.32;;;1.95;;
66886;SDS011;67239;51.680;5.976;2023-07-20T14:34:47;3.03;;;1.48;;
66886;SDS011;67239;51.680;5.976;2023-07-20T14:37:14;8.00;;;1.92;;
66886;SDS011;67239;51.680;5.976;2023-07-20T14:39:41;6.07;;;1.70;;
66886;SDS011;67239;51.680;5.976;2023-07-20T14:42:08;8.10;;;1.90;;
66886;SDS011;67239;51.680;5.976;2023-07-20T14:44:35;3.53;;;1.67;;
66886;SDS011;67239;51.680;5.976;2023-07-20T14:47:03;2.53;;;1.50;;
66886;SDS011;67239;51.680;5.976;2023-07-20T14:49:41;7.05;;;1.65;;
66886;SDS011;67239;51.680;5.976;2023-07-20T14:52:08;5.18;;;1.80;;
66886;SDS011;67239;51.680;5.976;2023-07-20T14:54:39;3.08;;;1.40;;
66886;SDS011;67239;51.680;5.976;2023-07-20T14:57:06;9.02;;;1.90;;
66886;SDS011;67239;51.680;5.976;2023-07-20T14:59:41;3.83;;;1.60;;
66886;SDS011;67239;51.680;5.976;2023-07-20T15:02:09;5.63;;;1.90;;
66886;SDS011;67239;51.680;5.976;2023-07-20T15:04:36;6.25;;;2.03;;
66886;SDS011;67239;51.680;5.976;2023-07-20T15:07:03;2.25;;;1.42;;
66886;SDS011;67239;51.680;5.976;2023-07-20T15:09:31;2.45;;;1.50;;
66886;SDS011;67239;51.680;5.976;2023-07-20T15:11:58;3.60;;;1.60;;
66886;SDS011;67239;51.680;5.976;2023-07-20T15:14:25;1.50;;;1.20;;
66886;SDS011;67239;51.680;5.976;2023-07-20T15:16:52;2.85;;;1.40;;
66886;SDS011;67239;51.680;5.976;2023-07-20T15:19:19;1.65;;;1.17;;
66886;SDS011;67239;51.680;5.976;2023-07-20T15:21:48;3.53;;;1.45;;
66886;SDS011;67239;51.680;5.976;2023-07-20T15:24:16;2.15;;;1.30;;